sensor_id;sensor_type;location;lat;lon;timestamp;P1;durP1;ratioP1;P2;durP2;ratioP2
49396;SDS011;35615;41.410;2.194;2023-09-19T00:02:02;3.50;;;1.85;;
49396;SDS011;35615;41.410;2.194;2023-09-19T00:04:33;2.20;;;1.42;;
49396;SDS011;35615;41.410;2.194;2023-09-19T00:07:01;5.32;;;2.05;;
49396;SDS011;35615;41.410;2.194;2023-09-19T00:09:31;6.03;;;1.70;;
49396;SDS011;35615;41.410;2.194;2023-09-19T00:12:04;4.93;;;2.10;;
49396;SDS011;35615;41.410;2.194;2023-09-19T00:14:32;4.32;;;2.10;;
49396;SDS011;35615;41.410;2.194;2023-09-19T00:17:04;2.65;;;1.52;;
49396;SDS011;35615;41.410;2.194;2023-09-19T00:19:35;5.15;;;1.63;;
49396;SDS011;35615;41.410;2.194;2023-09-19T00:22:03;2.75;;;1.80;;
49396;SDS011;35615;41.410;2.194;2023-09-19T00:24:31;3.88;;;1.60;;
49396;SDS011;35615;41.410;2.194;2023-09-19T00:26:58;3.45;;;1.63;;
49396;SDS011;35615;41.410;2.194;2023-09-19T00:29:26;3.75;;;1.35;;
49396;SDS011;35615;41.410;2.194;2023-09-19T00:31:55;3.85;;;1.98;;
49396;SDS011;35615;41.410;2.194;2023-09-19T00:34:24;3.15;;;1.55;;
49396;SDS011;35615;41.410;2.194;2023-09-19T00:36:51;2.00;;;1.40;;
49396;SDS011;35615;41.410;2.194;2023-09-19T00:39:19;4.07;;;1.60;;
49396;SDS011;35615;41.410;2.194;2023-09-19T00:41:47;4.80;;;1.70;;
49396;SDS011;35615;41.410;2.194;2023-09-19T00:44:15;4.50;;;1.83;;
49396;SDS011;35615;41.410;2.194;2023-09-19T00:46:42;4.72;;;1.60;;
49396;SDS011;35615;41.410;2.194;2023-09-19T00:49:10;2.38;;;1.95;;
49396;SDS011;35615;41.410;2.194;2023-09-19T00:51:38;2.72;;;1.58;;
49396;SDS011;35615;41.410;2.194;2023-09-19T00:54:08;4.47;;;1.80;;
49396;SDS011;35615;41.410;2.194;2023-09-19T00:56:36;6.85;;;2.33;;
49396;SDS011;35615;41.410;2.194;2023-09-19T00:59:07;6.78;;;2.03;;
49396;SDS011;35615;41.410;2.194;2023-09-19T01:01:35;3.97;;;2.33;;
49396;SDS011;35615;41.410;2.194;2023-09-19T01:04:03;3.35;;;2.08;;
49396;SDS011;35615;41.410;2.194;2023-09-19T01:06:31;6.30;;;2.00;;
49396;SDS011;35615;41.410;2.194;2023-09-19T01:08:58;6.70;;;1.83;;
49396;SDS011;35615;41.410;2.194;2023-09-19T01:11:33;4.80;;;2.38;;
49396;SDS011;35615;41.410;2.194;2023-09-19T01:14:20;6.32;;;2.75;;
49396;SDS011;35615;41.410;2.194;2023-09-19T01:17:03;5.20;;;1.90;;
49396;SDS011;35615;41.410;2.194;2023-09-19T01:22:46;8.32;;;2.05;;
49396;SDS011;35615;41.410;2.194;2023-09-19T01:25:50;7.07;;;2.08;;
49396;SDS011;35615;41.410;2.194;2023-09-19T01:31:25;7.00;;;2.30;;
49396;SDS011;35615;41.410;2.194;2023-09-19T01:34:01;5.43;;;2.13;;
49396;SDS011;35615;41.410;2.194;2023-09-19T01:36:34;13.27;;;2.35;;
49396;SDS011;35615;41.410;2.194;2023-09-19T01:39:12;8.32;;;2.40;;
49396;SDS011;35615;41.410;2.194;2023-09-19T01:41:54;4.55;;;2.63;;
49396;SDS011;35615;41.410;2.194;2023-09-19T01:44:40;7.25;;;2.25;;
49396;SDS011;35615;41.410;2.194;2023-09-19T01:47:21;7.75;;;2.17;;
49396;SDS011;35615;41.410;2.194;2023-09-19T01:52:57;5.22;;;2.53;;
49396;SDS011;35615;41.410;2.194;2023-09-19T01:58:06;6.00;;;3.00;;
49396;SDS011;35615;41.410;2.194;2023-09-19T02:00:40;4.43;;;2.17;;
49396;SDS011;35615;41.410;2.194;2023-09-19T02:03:09;7.60;;;2.45;;
49396;SDS011;35615;41.410;2.194;2023-09-19T02:05:38;8.75;;;2.50;;
49396;SDS011;35615;41.410;2.194;2023-09-19T02:08:06;5.75;;;2.25;;
49396;SDS011;35615;41.410;2.194;2023-09-19T02:10:33;7.00;;;2.78;;
49396;SDS011;35615;41.410;2.194;2023-09-19T02:13:01;6.70;;;2.20;;
49396;SDS011;35615;41.410;2.194;2023-09-19T02:15:31;7.50;;;2.47;;
49396;SDS011;35615;41.410;2.194;2023-09-19T02:18:01;3.78;;;2.10;;
49396;SDS011;35615;41.410;2.194;2023-09-19T02:20:32;6.18;;;2.88;;
49396;SDS011;35615;41.410;2.194;2023-09-19T02:23:00;10.90;;;2.13;;
49396;SDS011;35615;41.410;2.194;2023-09-19T02:25:27;5.82;;;2.63;;
49396;SDS011;35615;41.410;2.194;2023-09-19T02:27:54;7.90;;;3.22;;
49396;SDS011;35615;41.410;2.194;2023-09-19T02:30:25;7.30;;;2.63;;
49396;SDS011;35615;41.410;2.194;2023-09-19T02:32:53;8.02;;;2.70;;
49396;SDS011;35615;41.410;2.194;2023-09-19T02:35:21;8.93;;;2.65;;
49396;SDS011;35615;41.410;2.194;2023-09-19T02:37:49;8.05;;;2.50;;
49396;SDS011;35615;41.410;2.194;2023-09-19T02:40:16;9.40;;;2.45;;
49396;SDS011;35615;41.410;2.194;2023-09-19T02:42:47;5.20;;;2.40;;
49396;SDS011;35615;41.410;2.194;2023-09-19T02:45:16;5.45;;;2.13;;
49396;SDS011;35615;41.410;2.194;2023-09-19T02:47:44;10.18;;;2.40;;
49396;SDS011;35615;41.410;2.194;2023-09-19T02:50:14;11.25;;;2.50;;
49396;SDS011;35615;41.410;2.194;2023-09-19T02:52:43;7.10;;;2.10;;
49396;SDS011;35615;41.410;2.194;2023-09-19T02:55:11;7.05;;;2.10;;
49396;SDS011;35615;41.410;2.194;2023-09-19T03:00:15;5.50;;;2.10;;
49396;SDS011;35615;41.410;2.194;2023-09-19T03:02:43;8.00;;;2.13;;
49396;SDS011;35615;41.410;2.194;2023-09-19T03:05:12;9.73;;;1.67;;
49396;SDS011;35615;41.410;2.194;2023-09-19T03:07:39;10.23;;;1.60;;
49396;SDS011;35615;41.410;2.194;2023-09-19T03:10:06;11.07;;;1.90;;
49396;SDS011;35615;41.410;2.194;2023-09-19T03:12:35;14.88;;;1.65;;
49396;SDS011;35615;41.410;2.194;2023-09-19T03:15:02;6.25;;;2.05;;
49396;SDS011;35615;41.410;2.194;2023-09-19T03:17:31;4.22;;;1.33;;
49396;SDS011;35615;41.410;2.194;2023-09-19T03:19:59;9.90;;;1.55;;
49396;SDS011;35615;41.410;2.194;2023-09-19T03:22:27;10.80;;;1.58;;
49396;SDS011;35615;41.410;2.194;2023-09-19T03:24:54;6.63;;;1.73;;
49396;SDS011;35615;41.410;2.194;2023-09-19T03:27:22;5.10;;;1.23;;
49396;SDS011;35615;41.410;2.194;2023-09-19T03:29:51;5.97;;;1.55;;
49396;SDS011;35615;41.410;2.194;2023-09-19T03:32:18;7.35;;;1.40;;
49396;SDS011;35615;41.410;2.194;2023-09-19T03:34:45;6.22;;;2.22;;
49396;SDS011;35615;41.410;2.194;2023-09-19T03:37:16;6.78;;;2.17;;
49396;SDS011;35615;41.410;2.194;2023-09-19T03:39:44;12.32;;;1.50;;
49396;SDS011;35615;41.410;2.194;2023-09-19T03:42:12;9.75;;;1.50;;
49396;SDS011;35615;41.410;2.194;2023-09-19T03:44:39;8.70;;;1.52;;
49396;SDS011;35615;41.410;2.194;2023-09-19T03:47:06;8.35;;;1.75;;
49396;SDS011;35615;41.410;2.194;2023-09-19T03:49:34;5.60;;;1.63;;
49396;SDS011;35615;41.410;2.194;2023-09-19T03:52:04;19.80;;;2.25;;
49396;SDS011;35615;41.410;2.194;2023-09-19T03:54:33;9.90;;;2.25;;
49396;SDS011;35615;41.410;2.194;2023-09-19T03:57:00;8.70;;;1.70;;
49396;SDS011;35615;41.410;2.194;2023-09-19T03:59:27;10.98;;;1.52;;
49396;SDS011;35615;41.410;2.194;2023-09-19T04:01:56;7.13;;;1.80;;
49396;SDS011;35615;41.410;2.194;2023-09-19T04:04:24;15.27;;;2.35;;
49396;SDS011;35615;41.410;2.194;2023-09-19T04:06:52;14.18;;;2.08;;
49396;SDS011;35615;41.410;2.194;2023-09-19T04:09:20;15.68;;;1.83;;
49396;SDS011;35615;41.410;2.194;2023-09-19T04:11:48;8.43;;;1.40;;
49396;SDS011;35615;41.410;2.194;2023-09-19T04:14:17;9.38;;;1.75;;
49396;SDS011;35615;41.410;2.194;2023-09-19T04:16:48;6.40;;;1.77;;
49396;SDS011;35615;41.410;2.194;2023-09-19T04:19:16;10.50;;;1.60;;
49396;SDS011;35615;41.410;2.194;2023-09-19T04:21:44;6.22;;;1.52;;
49396;SDS011;35615;41.410;2.194;2023-09-19T04:24:11;9.98;;;1.70;;
49396;SDS011;35615;41.410;2.194;2023-09-19T04:26:40;12.32;;;2.35;;
49396;SDS011;35615;41.410;2.194;2023-09-19T04:29:08;10.55;;;2.05;;
49396;SDS011;35615;41.410;2.194;2023-09-19T04:31:37;8.55;;;1.80;;
49396;SDS011;35615;41.410;2.194;2023-09-19T04:34:07;10.40;;;2.13;;
49396;SDS011;35615;41.410;2.194;2023-09-19T04:36:37;8.52;;;2.45;;
49396;SDS011;35615;41.410;2.194;2023-09-19T04:39:04;10.90;;;1.92;;
49396;SDS011;35615;41.410;2.194;2023-09-19T04:41:34;11.35;;;2.80;;
49396;SDS011;35615;41.410;2.194;2023-09-19T04:44:05;6.28;;;2.63;;
49396;SDS011;35615;41.410;2.194;2023-09-19T04:46:32;7.25;;;2.80;;
49396;SDS011;35615;41.410;2.194;2023-09-19T04:48:59;16.83;;;3.65;;
49396;SDS011;35615;41.410;2.194;2023-09-19T04:51:27;12.45;;;3.95;;
49396;SDS011;35615;41.410;2.194;2023-09-19T04:53:59;12.07;;;3.42;;
49396;SDS011;35615;41.410;2.194;2023-09-19T04:56:27;4.40;;;2.38;;
49396;SDS011;35615;41.410;2.194;2023-09-19T04:58:55;7.07;;;2.83;;
49396;SDS011;35615;41.410;2.194;2023-09-19T05:01:24;9.18;;;2.72;;
49396;SDS011;35615;41.410;2.194;2023-09-19T05:03:51;15.52;;;3.45;;
49396;SDS011;35615;41.410;2.194;2023-09-19T05:06:22;10.52;;;2.92;;
49396;SDS011;35615;41.410;2.194;2023-09-19T05:08:50;9.30;;;3.80;;
49396;SDS011;35615;41.410;2.194;2023-09-19T05:11:20;13.20;;;3.60;;
49396;SDS011;35615;41.410;2.194;2023-09-19T05:13:49;6.55;;;2.22;;
49396;SDS011;35615;41.410;2.194;2023-09-19T05:16:20;15.25;;;3.08;;
49396;SDS011;35615;41.410;2.194;2023-09-19T05:18:47;8.65;;;3.47;;
49396;SDS011;35615;41.410;2.194;2023-09-19T05:21:16;10.88;;;2.60;;
49396;SDS011;35615;41.410;2.194;2023-09-19T05:23:44;10.88;;;3.05;;
49396;SDS011;35615;41.410;2.194;2023-09-19T05:26:11;9.00;;;3.10;;
49396;SDS011;35615;41.410;2.194;2023-09-19T05:28:39;10.57;;;3.03;;
49396;SDS011;35615;41.410;2.194;2023-09-19T05:31:06;7.88;;;2.80;;
49396;SDS011;35615;41.410;2.194;2023-09-19T05:33:33;6.00;;;2.40;;
49396;SDS011;35615;41.410;2.194;2023-09-19T05:36:01;12.20;;;2.65;;
49396;SDS011;35615;41.410;2.194;2023-09-19T05:38:28;9.98;;;3.30;;
49396;SDS011;35615;41.410;2.194;2023-09-19T05:40:55;10.43;;;2.65;;
49396;SDS011;35615;41.410;2.194;2023-09-19T05:43:23;10.50;;;3.10;;
49396;SDS011;35615;41.410;2.194;2023-09-19T05:45:50;15.63;;;2.67;;
49396;SDS011;35615;41.410;2.194;2023-09-19T05:48:19;16.50;;;2.50;;
49396;SDS011;35615;41.410;2.194;2023-09-19T05:50:48;11.00;;;3.00;;
49396;SDS011;35615;41.410;2.194;2023-09-19T05:53:18;12.10;;;2.35;;
49396;SDS011;35615;41.410;2.194;2023-09-19T05:55:45;5.78;;;2.13;;
49396;SDS011;35615;41.410;2.194;2023-09-19T05:58:14;7.13;;;2.80;;
49396;SDS011;35615;41.410;2.194;2023-09-19T06:00:45;8.15;;;3.22;;
49396;SDS011;35615;41.410;2.194;2023-09-19T06:03:15;7.65;;;2.47;;
49396;SDS011;35615;41.410;2.194;2023-09-19T06:05:44;11.48;;;2.53;;
49396;SDS011;35615;41.410;2.194;2023-09-19T06:08:12;7.32;;;2.78;;
49396;SDS011;35615;41.410;2.194;2023-09-19T06:10:39;9.95;;;2.78;;
49396;SDS011;35615;41.410;2.194;2023-09-19T06:13:07;12.10;;;2.60;;
49396;SDS011;35615;41.410;2.194;2023-09-19T06:15:36;9.60;;;2.78;;
49396;SDS011;35615;41.410;2.194;2023-09-19T06:18:04;9.18;;;2.83;;
49396;SDS011;35615;41.410;2.194;2023-09-19T06:20:32;22.33;;;3.78;;
49396;SDS011;35615;41.410;2.194;2023-09-19T06:23:00;11.82;;;2.47;;
49396;SDS011;35615;41.410;2.194;2023-09-19T06:25:29;10.23;;;2.63;;
49396;SDS011;35615;41.410;2.194;2023-09-19T06:27:56;11.48;;;2.95;;
49396;SDS011;35615;41.410;2.194;2023-09-19T06:30:24;9.05;;;3.00;;
49396;SDS011;35615;41.410;2.194;2023-09-19T06:32:56;12.20;;;2.80;;
49396;SDS011;35615;41.410;2.194;2023-09-19T06:35:25;13.73;;;2.95;;
49396;SDS011;35615;41.410;2.194;2023-09-19T06:37:53;8.52;;;3.13;;
49396;SDS011;35615;41.410;2.194;2023-09-19T06:40:21;29.60;;;3.38;;
49396;SDS011;35615;41.410;2.194;2023-09-19T06:42:50;9.85;;;2.72;;
49396;SDS011;35615;41.410;2.194;2023-09-19T06:45:19;7.93;;;2.90;;
49396;SDS011;35615;41.410;2.194;2023-09-19T06:47:49;12.77;;;3.20;;
49396;SDS011;35615;41.410;2.194;2023-09-19T06:50:19;11.60;;;2.70;;
49396;SDS011;35615;41.410;2.194;2023-09-19T06:52:53;9.35;;;2.85;;
49396;SDS011;35615;41.410;2.194;2023-09-19T06:55:25;8.98;;;3.08;;
49396;SDS011;35615;41.410;2.194;2023-09-19T06:57:59;14.93;;;2.75;;
49396;SDS011;35615;41.410;2.194;2023-09-19T07:00:27;13.05;;;2.50;;
49396;SDS011;35615;41.410;2.194;2023-09-19T07:03:02;11.85;;;2.78;;
49396;SDS011;35615;41.410;2.194;2023-09-19T07:05:31;6.13;;;2.63;;
49396;SDS011;35615;41.410;2.194;2023-09-19T07:08:00;7.15;;;2.63;;
49396;SDS011;35615;41.410;2.194;2023-09-19T07:10:32;11.35;;;2.92;;
49396;SDS011;35615;41.410;2.194;2023-09-19T07:13:05;21.90;;;3.47;;
49396;SDS011;35615;41.410;2.194;2023-09-19T07:15:38;12.65;;;2.47;;
49396;SDS011;35615;41.410;2.194;2023-09-19T07:18:06;8.55;;;2.70;;
49396;SDS011;35615;41.410;2.194;2023-09-19T07:20:38;14.15;;;3.58;;
49396;SDS011;35615;41.410;2.194;2023-09-19T07:23:05;11.52;;;3.63;;
49396;SDS011;35615;41.410;2.194;2023-09-19T07:25:35;15.20;;;2.78;;
49396;SDS011;35615;41.410;2.194;2023-09-19T07:28:03;17.08;;;3.60;;
49396;SDS011;35615;41.410;2.194;2023-09-19T07:30:30;17.65;;;3.95;;
49396;SDS011;35615;41.410;2.194;2023-09-19T07:32:58;12.13;;;4.03;;
49396;SDS011;35615;41.410;2.194;2023-09-19T07:35:25;17.45;;;4.20;;
49396;SDS011;35615;41.410;2.194;2023-09-19T07:37:52;16.58;;;4.35;;
49396;SDS011;35615;41.410;2.194;2023-09-19T07:40:20;13.90;;;4.03;;
49396;SDS011;35615;41.410;2.194;2023-09-19T07:42:47;16.20;;;3.10;;
49396;SDS011;35615;41.410;2.194;2023-09-19T07:45:15;22.17;;;3.90;;
49396;SDS011;35615;41.410;2.194;2023-09-19T07:47:47;9.25;;;3.20;;
49396;SDS011;35615;41.410;2.194;2023-09-19T07:50:16;17.70;;;4.03;;
49396;SDS011;35615;41.410;2.194;2023-09-19T07:52:48;16.27;;;4.53;;
49396;SDS011;35615;41.410;2.194;2023-09-19T07:55:18;18.83;;;3.60;;
49396;SDS011;35615;41.410;2.194;2023-09-19T07:57:46;8.52;;;2.85;;
49396;SDS011;35615;41.410;2.194;2023-09-19T08:00:14;14.63;;;3.10;;
49396;SDS011;35615;41.410;2.194;2023-09-19T08:02:42;18.98;;;4.65;;
49396;SDS011;35615;41.410;2.194;2023-09-19T08:05:10;9.30;;;2.67;;
49396;SDS011;35615;41.410;2.194;2023-09-19T08:07:39;10.55;;;3.35;;
49396;SDS011;35615;41.410;2.194;2023-09-19T08:10:08;7.55;;;4.10;;
49396;SDS011;35615;41.410;2.194;2023-09-19T08:12:40;14.15;;;3.42;;
49396;SDS011;35615;41.410;2.194;2023-09-19T08:15:17;14.80;;;3.75;;
49396;SDS011;35615;41.410;2.194;2023-09-19T08:17:47;12.45;;;4.05;;
49396;SDS011;35615;41.410;2.194;2023-09-19T08:20:16;13.90;;;3.45;;
49396;SDS011;35615;41.410;2.194;2023-09-19T08:22:47;17.50;;;3.97;;
49396;SDS011;35615;41.410;2.194;2023-09-19T08:25:16;9.77;;;3.92;;
49396;SDS011;35615;41.410;2.194;2023-09-19T08:27:45;13.32;;;4.15;;
49396;SDS011;35615;41.410;2.194;2023-09-19T08:30:17;17.55;;;4.13;;
49396;SDS011;35615;41.410;2.194;2023-09-19T08:32:55;13.95;;;3.88;;
49396;SDS011;35615;41.410;2.194;2023-09-19T08:35:26;17.50;;;4.85;;
49396;SDS011;35615;41.410;2.194;2023-09-19T08:37:54;13.85;;;4.15;;
49396;SDS011;35615;41.410;2.194;2023-09-19T08:40:22;10.35;;;3.47;;
49396;SDS011;35615;41.410;2.194;2023-09-19T08:42:51;15.98;;;3.22;;
49396;SDS011;35615;41.410;2.194;2023-09-19T08:45:20;16.35;;;3.85;;
49396;SDS011;35615;41.410;2.194;2023-09-19T08:50:26;11.38;;;2.95;;
49396;SDS011;35615;41.410;2.194;2023-09-19T08:52:55;7.72;;;2.70;;
49396;SDS011;35615;41.410;2.194;2023-09-19T08:55:26;6.03;;;2.17;;
49396;SDS011;35615;41.410;2.194;2023-09-19T08:58:02;7.15;;;2.15;;
49396;SDS011;35615;41.410;2.194;2023-09-19T09:00:33;4.45;;;2.08;;
49396;SDS011;35615;41.410;2.194;2023-09-19T09:03:02;9.23;;;2.25;;
49396;SDS011;35615;41.410;2.194;2023-09-19T09:05:33;12.95;;;2.20;;
49396;SDS011;35615;41.410;2.194;2023-09-19T09:08:04;9.07;;;2.80;;
49396;SDS011;35615;41.410;2.194;2023-09-19T09:10:33;9.65;;;2.10;;
49396;SDS011;35615;41.410;2.194;2023-09-19T09:13:01;7.00;;;1.90;;
49396;SDS011;35615;41.410;2.194;2023-09-19T09:15:29;6.35;;;2.17;;
49396;SDS011;35615;41.410;2.194;2023-09-19T09:18:01;13.50;;;2.67;;
49396;SDS011;35615;41.410;2.194;2023-09-19T09:20:32;6.43;;;2.65;;
49396;SDS011;35615;41.410;2.194;2023-09-19T09:22:59;7.30;;;2.53;;
49396;SDS011;35615;41.410;2.194;2023-09-19T09:25:53;13.88;;;2.58;;
49396;SDS011;35615;41.410;2.194;2023-09-19T09:28:24;11.50;;;2.33;;
49396;SDS011;35615;41.410;2.194;2023-09-19T09:30:57;5.07;;;2.17;;
49396;SDS011;35615;41.410;2.194;2023-09-19T09:33:25;11.07;;;2.67;;
49396;SDS011;35615;41.410;2.194;2023-09-19T09:35:55;7.55;;;2.70;;
49396;SDS011;35615;41.410;2.194;2023-09-19T09:38:28;10.47;;;2.53;;
49396;SDS011;35615;41.410;2.194;2023-09-19T09:41:15;14.27;;;2.63;;
49396;SDS011;35615;41.410;2.194;2023-09-19T09:43:54;12.25;;;2.58;;
49396;SDS011;35615;41.410;2.194;2023-09-19T09:46:21;9.77;;;2.55;;
49396;SDS011;35615;41.410;2.194;2023-09-19T09:49:02;9.85;;;3.05;;
49396;SDS011;35615;41.410;2.194;2023-09-19T09:54:15;11.13;;;3.28;;
49396;SDS011;35615;41.410;2.194;2023-09-19T09:59:47;9.77;;;2.50;;
49396;SDS011;35615;41.410;2.194;2023-09-19T10:02:27;14.27;;;3.22;;
49396;SDS011;35615;41.410;2.194;2023-09-19T10:04:57;9.55;;;3.45;;
49396;SDS011;35615;41.410;2.194;2023-09-19T10:07:35;23.85;;;11.13;;
49396;SDS011;35615;41.410;2.194;2023-09-19T10:10:08;14.30;;;4.65;;
49396;SDS011;35615;41.410;2.194;2023-09-19T10:12:48;11.45;;;3.38;;
49396;SDS011;35615;41.410;2.194;2023-09-19T10:15:18;14.20;;;3.70;;
49396;SDS011;35615;41.410;2.194;2023-09-19T10:17:51;13.23;;;3.20;;
49396;SDS011;35615;41.410;2.194;2023-09-19T10:20:23;13.40;;;3.75;;
49396;SDS011;35615;41.410;2.194;2023-09-19T10:22:51;14.82;;;3.85;;
49396;SDS011;35615;41.410;2.194;2023-09-19T10:25:26;16.33;;;3.40;;
49396;SDS011;35615;41.410;2.194;2023-09-19T10:28:00;12.63;;;4.05;;
49396;SDS011;35615;41.410;2.194;2023-09-19T10:30:31;14.25;;;3.15;;
49396;SDS011;35615;41.410;2.194;2023-09-19T10:33:00;11.85;;;3.30;;
49396;SDS011;35615;41.410;2.194;2023-09-19T10:35:29;12.90;;;4.03;;
49396;SDS011;35615;41.410;2.194;2023-09-19T10:37:57;7.50;;;2.92;;
49396;SDS011;35615;41.410;2.194;2023-09-19T10:40:27;8.45;;;3.20;;
49396;SDS011;35615;41.410;2.194;2023-09-19T10:43:02;11.18;;;3.17;;
49396;SDS011;35615;41.410;2.194;2023-09-19T10:45:32;12.70;;;2.85;;
49396;SDS011;35615;41.410;2.194;2023-09-19T10:48:01;13.23;;;3.13;;
49396;SDS011;35615;41.410;2.194;2023-09-19T10:50:44;6.07;;;2.38;;
49396;SDS011;35615;41.410;2.194;2023-09-19T10:53:16;7.78;;;2.47;;
49396;SDS011;35615;41.410;2.194;2023-09-19T10:55:52;6.35;;;3.03;;
49396;SDS011;35615;41.410;2.194;2023-09-19T10:58:26;11.90;;;2.35;;
49396;SDS011;35615;41.410;2.194;2023-09-19T11:01:04;9.98;;;2.47;;
49396;SDS011;35615;41.410;2.194;2023-09-19T11:03:33;9.13;;;2.53;;
49396;SDS011;35615;41.410;2.194;2023-09-19T11:06:09;7.93;;;2.30;;
49396;SDS011;35615;41.410;2.194;2023-09-19T11:08:58;7.78;;;2.30;;
49396;SDS011;35615;41.410;2.194;2023-09-19T11:11:58;9.30;;;1.90;;
49396;SDS011;35615;41.410;2.194;2023-09-19T11:30:41;6.35;;;1.40;;
49396;SDS011;35615;41.410;2.194;2023-09-19T11:33:29;6.85;;;2.10;;
49396;SDS011;35615;41.410;2.194;2023-09-19T11:46:32;2.75;;;1.60;;
49396;SDS011;35615;41.410;2.194;2023-09-19T11:49:07;6.20;;;2.30;;
49396;SDS011;35615;41.410;2.194;2023-09-19T11:51:40;5.45;;;2.13;;
49396;SDS011;35615;41.410;2.194;2023-09-19T11:54:11;3.97;;;1.90;;
49396;SDS011;35615;41.410;2.194;2023-09-19T11:56:49;4.43;;;1.98;;
49396;SDS011;35615;41.410;2.194;2023-09-19T11:59:21;8.93;;;2.00;;
49396;SDS011;35615;41.410;2.194;2023-09-19T12:01:55;8.05;;;2.35;;
49396;SDS011;35615;41.410;2.194;2023-09-19T12:04:33;8.80;;;2.22;;
49396;SDS011;35615;41.410;2.194;2023-09-19T12:07:09;2.60;;;1.63;;
49396;SDS011;35615;41.410;2.194;2023-09-19T12:09:47;6.70;;;2.20;;
49396;SDS011;35615;41.410;2.194;2023-09-19T12:12:24;5.45;;;1.95;;
49396;SDS011;35615;41.410;2.194;2023-09-19T12:14:54;12.48;;;3.28;;
49396;SDS011;35615;41.410;2.194;2023-09-19T12:20:03;5.72;;;1.50;;
49396;SDS011;35615;41.410;2.194;2023-09-19T12:22:43;5.88;;;1.75;;
49396;SDS011;35615;41.410;2.194;2023-09-19T12:25:14;6.75;;;1.83;;
49396;SDS011;35615;41.410;2.194;2023-09-19T12:27:47;4.28;;;2.28;;
49396;SDS011;35615;41.410;2.194;2023-09-19T12:30:21;6.45;;;2.20;;
49396;SDS011;35615;41.410;2.194;2023-09-19T12:32:55;4.75;;;1.73;;
49396;SDS011;35615;41.410;2.194;2023-09-19T12:38:24;9.35;;;2.00;;
49396;SDS011;35615;41.410;2.194;2023-09-19T12:41:02;5.22;;;2.30;;
49396;SDS011;35615;41.410;2.194;2023-09-19T12:43:33;7.47;;;1.92;;
49396;SDS011;35615;41.410;2.194;2023-09-19T12:46:01;6.00;;;2.20;;
49396;SDS011;35615;41.410;2.194;2023-09-19T12:48:29;5.55;;;1.73;;
49396;SDS011;35615;41.410;2.194;2023-09-19T12:51:05;4.43;;;2.10;;
49396;SDS011;35615;41.410;2.194;2023-09-19T12:53:45;12.50;;;2.67;;
49396;SDS011;35615;41.410;2.194;2023-09-19T12:56:24;4.30;;;2.47;;
49396;SDS011;35615;41.410;2.194;2023-09-19T13:01:30;8.15;;;2.10;;
49396;SDS011;35615;41.410;2.194;2023-09-19T13:04:18;4.40;;;2.03;;
49396;SDS011;35615;41.410;2.194;2023-09-19T13:06:59;5.10;;;1.98;;
49396;SDS011;35615;41.410;2.194;2023-09-19T13:09:28;8.75;;;2.08;;
49396;SDS011;35615;41.410;2.194;2023-09-19T13:12:02;4.70;;;1.48;;
49396;SDS011;35615;41.410;2.194;2023-09-19T13:14:30;5.93;;;1.90;;
49396;SDS011;35615;41.410;2.194;2023-09-19T13:17:02;7.68;;;1.90;;
49396;SDS011;35615;41.410;2.194;2023-09-19T13:19:38;6.45;;;2.05;;
49396;SDS011;35615;41.410;2.194;2023-09-19T13:22:38;5.05;;;2.03;;
49396;SDS011;35615;41.410;2.194;2023-09-19T13:25:10;4.28;;;1.60;;
49396;SDS011;35615;41.410;2.194;2023-09-19T13:27:46;5.18;;;1.95;;
49396;SDS011;35615;41.410;2.194;2023-09-19T13:30:19;5.93;;;1.75;;
49396;SDS011;35615;41.410;2.194;2023-09-19T13:32:50;5.45;;;1.38;;
49396;SDS011;35615;41.410;2.194;2023-09-19T13:35:19;5.63;;;1.83;;
49396;SDS011;35615;41.410;2.194;2023-09-19T13:37:47;8.52;;;2.20;;
49396;SDS011;35615;41.410;2.194;2023-09-19T13:40:18;6.57;;;1.70;;
49396;SDS011;35615;41.410;2.194;2023-09-19T13:42:45;4.80;;;2.20;;
49396;SDS011;35615;41.410;2.194;2023-09-19T13:45:13;13.10;;;2.22;;
49396;SDS011;35615;41.410;2.194;2023-09-19T13:47:44;10.00;;;2.58;;
49396;SDS011;35615;41.410;2.194;2023-09-19T13:50:11;4.05;;;1.92;;
49396;SDS011;35615;41.410;2.194;2023-09-19T13:52:39;5.45;;;1.75;;
49396;SDS011;35615;41.410;2.194;2023-09-19T13:55:06;4.75;;;2.00;;
49396;SDS011;35615;41.410;2.194;2023-09-19T13:57:34;4.47;;;1.63;;
49396;SDS011;35615;41.410;2.194;2023-09-19T14:00:01;4.85;;;1.80;;
49396;SDS011;35615;41.410;2.194;2023-09-19T14:02:37;9.13;;;2.03;;
49396;SDS011;35615;41.410;2.194;2023-09-19T14:05:06;11.40;;;1.80;;
49396;SDS011;35615;41.410;2.194;2023-09-19T14:07:33;8.55;;;2.30;;
49396;SDS011;35615;41.410;2.194;2023-09-19T14:10:01;8.15;;;1.90;;
49396;SDS011;35615;41.410;2.194;2023-09-19T14:12:28;6.43;;;1.92;;
49396;SDS011;35615;41.410;2.194;2023-09-19T14:14:57;10.48;;;2.30;;
49396;SDS011;35615;41.410;2.194;2023-09-19T14:17:24;9.85;;;2.00;;
49396;SDS011;35615;41.410;2.194;2023-09-19T14:19:56;7.20;;;2.45;;
49396;SDS011;35615;41.410;2.194;2023-09-19T14:22:26;13.70;;;2.50;;
49396;SDS011;35615;41.410;2.194;2023-09-19T14:24:55;10.75;;;1.90;;
49396;SDS011;35615;41.410;2.194;2023-09-19T14:27:25;6.97;;;2.00;;
49396;SDS011;35615;41.410;2.194;2023-09-19T14:29:52;7.93;;;1.63;;
49396;SDS011;35615;41.410;2.194;2023-09-19T14:32:19;8.57;;;2.63;;
49396;SDS011;35615;41.410;2.194;2023-09-19T14:34:47;10.70;;;2.25;;
49396;SDS011;35615;41.410;2.194;2023-09-19T14:37:15;6.97;;;2.10;;
49396;SDS011;35615;41.410;2.194;2023-09-19T14:40:02;7.63;;;2.55;;
49396;SDS011;35615;41.410;2.194;2023-09-19T14:42:38;7.78;;;2.17;;
49396;SDS011;35615;41.410;2.194;2023-09-19T14:45:07;9.95;;;2.10;;
49396;SDS011;35615;41.410;2.194;2023-09-19T14:47:34;14.43;;;1.95;;
49396;SDS011;35615;41.410;2.194;2023-09-19T14:50:03;8.40;;;2.25;;
49396;SDS011;35615;41.410;2.194;2023-09-19T14:52:33;10.02;;;2.03;;
49396;SDS011;35615;41.410;2.194;2023-09-19T14:55:03;11.27;;;2.90;;
49396;SDS011;35615;41.410;2.194;2023-09-19T14:57:31;8.68;;;2.15;;
49396;SDS011;35615;41.410;2.194;2023-09-19T14:59:59;6.25;;;1.90;;
49396;SDS011;35615;41.410;2.194;2023-09-19T15:02:27;11.85;;;2.20;;
49396;SDS011;35615;41.410;2.194;2023-09-19T15:04:54;7.72;;;1.73;;
49396;SDS011;35615;41.410;2.194;2023-09-19T15:07:22;10.05;;;1.75;;
49396;SDS011;35615;41.410;2.194;2023-09-19T15:09:50;11.05;;;2.03;;
49396;SDS011;35615;41.410;2.194;2023-09-19T15:12:17;8.75;;;1.90;;
49396;SDS011;35615;41.410;2.194;2023-09-19T15:14:44;8.70;;;1.98;;
49396;SDS011;35615;41.410;2.194;2023-09-19T15:17:12;9.13;;;2.00;;
49396;SDS011;35615;41.410;2.194;2023-09-19T15:19:39;7.32;;;2.30;;
49396;SDS011;35615;41.410;2.194;2023-09-19T15:22:06;10.35;;;2.03;;
49396;SDS011;35615;41.410;2.194;2023-09-19T15:24:33;8.70;;;2.20;;
49396;SDS011;35615;41.410;2.194;2023-09-19T15:27:01;10.10;;;1.90;;
49396;SDS011;35615;41.410;2.194;2023-09-19T15:29:28;11.43;;;2.67;;
49396;SDS011;35615;41.410;2.194;2023-09-19T15:31:56;7.75;;;2.08;;
49396;SDS011;35615;41.410;2.194;2023-09-19T15:34:29;11.38;;;2.67;;
49396;SDS011;35615;41.410;2.194;2023-09-19T15:36:56;11.77;;;2.10;;
49396;SDS011;35615;41.410;2.194;2023-09-19T15:39:24;7.78;;;1.92;;
49396;SDS011;35615;41.410;2.194;2023-09-19T15:41:54;6.80;;;1.83;;
49396;SDS011;35615;41.410;2.194;2023-09-19T15:44:21;12.07;;;2.13;;
49396;SDS011;35615;41.410;2.194;2023-09-19T15:46:52;10.73;;;1.88;;
49396;SDS011;35615;41.410;2.194;2023-09-19T15:49:20;8.82;;;2.70;;
49396;SDS011;35615;41.410;2.194;2023-09-19T15:51:48;9.43;;;2.10;;
49396;SDS011;35615;41.410;2.194;2023-09-19T15:54:15;4.43;;;2.08;;
49396;SDS011;35615;41.410;2.194;2023-09-19T15:56:46;8.65;;;1.85;;
49396;SDS011;35615;41.410;2.194;2023-09-19T15:59:16;8.55;;;1.92;;
49396;SDS011;35615;41.410;2.194;2023-09-19T16:01:44;16.88;;;2.53;;